createdAt,value
2023-02-02T00:02:00.571Z,5.47
2023-02-02T00:05:02.067Z,5.28
2023-02-02T00:08:03.671Z,5.25
2023-02-02T00:11:05.928Z,5.35
2023-02-02T00:14:08.412Z,5.18
2023-02-02T00:17:10.812Z,5.26
2023-02-02T00:20:12.559Z,5.29
2023-02-02T00:23:14.055Z,5.25
2023-02-02T00:26:16.063Z,5.30
2023-02-02T00:29:21.199Z,5.29
2023-02-02T00:32:22.744Z,5.42
2023-02-02T00:35:24.481Z,5.24
2023-02-02T00:38:26.201Z,5.33
2023-02-02T00:41:27.699Z,5.26
2023-02-02T00:44:47.910Z,5.41
2023-02-02T00:47:50.008Z,5.51
2023-02-02T00:50:52.272Z,5.38
2023-02-02T00:53:53.694Z,5.25
2023-02-02T00:56:55.312Z,5.36
2023-02-02T00:59:56.797Z,5.44
2023-02-02T01:03:04.213Z,5.25
2023-02-02T01:06:05.845Z,5.18
2023-02-02T01:09:07.447Z,5.36
2023-02-02T01:12:08.987Z,5.27
2023-02-02T01:15:12.133Z,5.09
2023-02-02T01:18:13.562Z,5.06
2023-02-02T01:21:15.039Z,5.35
2023-02-02T01:24:16.569Z,5.37
2023-02-02T01:27:18.427Z,5.26
2023-02-02T01:30:19.904Z,5.01
2023-02-02T01:33:22.272Z,5.06
2023-02-02T01:36:24.226Z,5.30
2023-02-02T01:39:26.235Z,5.47
2023-02-02T01:42:27.789Z,5.24
2023-02-02T01:45:29.633Z,5.20
2023-02-02T01:48:34.682Z,5.37
2023-02-02T01:51:45.298Z,5.45
2023-02-02T01:54:51.843Z,5.41
2023-02-02T01:57:59.927Z,5.29
2023-02-02T02:01:01.517Z,5.38
2023-02-02T02:04:03.564Z,5.41
2023-02-02T02:07:07.213Z,5.17
2023-02-02T02:10:08.815Z,5.14
2023-02-02T02:13:11.227Z,5.15
2023-02-02T02:16:40.263Z,5.20
2023-02-02T02:20:25.800Z,5.33
2023-02-02T02:24:24.906Z,5.32
2023-02-02T02:27:48.131Z,5.31
2023-02-02T02:31:32.421Z,4.98
2023-02-02T02:34:55.084Z,4.97
2023-02-02T02:38:35.256Z,5.08
2023-02-02T02:41:42.831Z,5.11
2023-02-02T02:44:47.052Z,5.20
2023-02-02T02:47:50.190Z,5.06
2023-02-02T02:50:51.681Z,5.30
2023-02-02T02:53:53.221Z,5.21
2023-02-02T02:57:32.586Z,5.16
2023-02-02T03:01:03.974Z,5.36
2023-02-02T03:04:22.278Z,5.07
2023-02-02T03:07:34.400Z,5.17
2023-02-02T03:10:37.944Z,5.14
2023-02-02T03:13:41.269Z,5.25
2023-02-02T03:16:42.784Z,5.30
2023-02-02T03:19:44.244Z,5.10
2023-02-02T03:22:45.738Z,4.92
2023-02-02T03:25:47.588Z,5.16
2023-02-02T03:28:51.133Z,5.01
2023-02-02T03:31:52.587Z,5.21
2023-02-02T03:34:54.046Z,5.14
2023-02-02T03:37:55.525Z,5.12
2023-02-02T03:40:56.951Z,5.10
2023-02-02T03:43:58.413Z,5.35
2023-02-02T03:46:59.900Z,5.32
2023-02-02T03:50:01.405Z,5.35
2023-02-02T03:53:03.199Z,5.03
2023-02-02T03:56:05.005Z,5.22
2023-02-02T03:59:06.541Z,5.27
2023-02-02T04:02:08.111Z,5.20
2023-02-02T04:05:09.605Z,5.28
2023-02-02T04:08:11.063Z,5.20
2023-02-02T04:11:12.598Z,5.22
2023-02-02T04:14:14.137Z,5.09
2023-02-02T04:17:15.648Z,5.06
2023-02-02T04:20:17.417Z,4.92
2023-02-02T04:23:18.875Z,5.24
2023-02-02T04:26:20.388Z,5.22
2023-02-02T04:29:22.264Z,5.09
2023-02-02T04:32:23.749Z,5.14
2023-02-02T04:35:25.641Z,5.22
2023-02-02T04:38:27.293Z,4.97
2023-02-02T04:41:28.759Z,4.83
2023-02-02T04:44:30.219Z,5.11
2023-02-02T04:47:31.775Z,5.05
2023-02-02T04:50:33.278Z,5.22
2023-02-02T04:53:35.312Z,4.97
2023-02-02T04:56:36.806Z,5.06
2023-02-02T04:59:39.512Z,5.28
2023-02-02T05:02:42.957Z,5.21
2023-02-02T05:05:44.430Z,5.03
2023-02-02T05:08:47.838Z,5.02
2023-02-02T05:11:49.348Z,5.04
2023-02-02T05:14:50.972Z,5.09
2023-02-02T05:17:52.531Z,5.31
2023-02-02T05:20:54.975Z,4.89
2023-02-02T05:23:56.340Z,4.96
2023-02-02T05:27:00.833Z,5.12
2023-02-02T05:30:02.314Z,5.02
2023-02-02T05:33:03.831Z,5.03
2023-02-02T05:36:06.268Z,5.17
2023-02-02T05:39:07.840Z,4.99
2023-02-02T05:42:09.409Z,5.08
2023-02-02T05:45:11.275Z,5.07
2023-02-02T05:48:16.667Z,5.12
2023-02-02T05:51:23.954Z,5.01
2023-02-02T05:54:25.551Z,5.14
2023-02-02T05:57:28.002Z,4.67
2023-02-02T06:00:29.380Z,5.11
2023-02-02T06:03:31.112Z,5.05
2023-02-02T06:06:32.681Z,4.88
2023-02-02T06:09:34.252Z,5.07
2023-02-02T06:12:35.795Z,4.68
2023-02-02T06:15:37.704Z,5.15
2023-02-02T06:18:39.202Z,4.99
2023-02-02T06:21:40.784Z,4.98
2023-02-02T06:24:42.263Z,5.07
2023-02-02T06:27:46.155Z,5.03
2023-02-02T06:30:47.701Z,5.16
2023-02-02T06:33:58.212Z,5.20
2023-02-02T06:36:59.750Z,5.10
2023-02-02T06:40:01.198Z,5.07
2023-02-02T06:43:03.343Z,5.17
2023-02-02T06:46:04.979Z,5.27
2023-02-02T06:49:06.445Z,5.22
2023-02-02T06:52:08.221Z,5.10
2023-02-02T06:55:09.669Z,5.03
2023-02-02T06:58:11.112Z,5.11
2023-02-02T07:01:13.830Z,5.11
2023-02-02T07:04:19.990Z,4.86
2023-02-02T07:07:21.501Z,4.95
2023-02-02T07:11:09.440Z,4.84
2023-02-02T07:13:49.170Z,4.78
2023-02-02T07:16:50.705Z,5.10
2023-02-02T07:19:52.155Z,5.00
2023-02-02T07:22:53.607Z,5.06
2023-02-02T07:26:09.218Z,4.96
2023-02-02T07:29:14.301Z,4.97
2023-02-02T07:32:15.762Z,5.28
2023-02-02T07:35:17.495Z,5.25
2023-02-02T07:38:19.304Z,5.24
2023-02-02T07:41:22.018Z,5.52
2023-02-02T07:44:23.509Z,5.27
2023-02-02T07:47:25.395Z,5.51
2023-02-02T07:50:28.242Z,5.52
2023-02-02T07:53:30.114Z,5.49
2023-02-02T07:56:31.578Z,5.36
2023-02-02T07:59:33.238Z,5.57
2023-02-02T08:02:35.109Z,5.51
2023-02-02T08:05:36.569Z,5.13
2023-02-02T08:08:38.118Z,5.30
2023-02-02T08:11:39.679Z,5.21
2023-02-02T08:14:41.254Z,5.41
2023-02-02T08:17:46.648Z,5.35
2023-02-02T08:20:49.343Z,5.39
2023-02-02T08:23:52.386Z,5.69
2023-02-02T08:26:53.908Z,5.64
2023-02-02T08:29:55.402Z,5.77
2023-02-02T08:32:56.919Z,5.85
2023-02-02T08:35:58.499Z,5.76
2023-02-02T08:39:03.049Z,6.04
2023-02-02T08:42:04.837Z,5.92
2023-02-02T08:46:00.098Z,5.79
2023-02-02T08:48:28.413Z,5.63
2023-02-02T08:51:30.307Z,5.83
2023-02-02T08:54:31.778Z,5.53
2023-02-02T08:57:34.438Z,5.86
2023-02-02T09:00:35.959Z,6.10
2023-02-02T09:03:40.216Z,5.76
2023-02-02T09:06:42.981Z,6.16
2023-02-02T09:09:44.474Z,6.13
2023-02-02T09:12:45.879Z,6.02
2023-02-02T09:15:47.455Z,6.11
2023-02-02T09:18:49.013Z,5.76
2023-02-02T09:21:51.140Z,5.88
2023-02-02T09:24:52.676Z,5.92
2023-02-02T09:27:54.306Z,6.10
2023-02-02T09:30:55.916Z,5.93
2023-02-02T09:34:04.071Z,6.01
2023-02-02T09:37:05.617Z,5.90
2023-02-02T09:40:07.949Z,6.03
2023-02-02T09:43:28.328Z,5.76
2023-02-02T09:46:45.157Z,5.94
2023-02-02T09:49:58.897Z,5.80
2023-02-02T09:53:08.624Z,5.90
2023-02-02T09:56:21.379Z,6.04
2023-02-02T09:59:34.776Z,6.02
2023-02-02T10:02:41.910Z,6.35
2023-02-02T10:06:07.506Z,6.18
2023-02-02T10:09:40.792Z,6.27
2023-02-02T10:12:49.775Z,6.28
2023-02-02T10:16:13.463Z,6.32
2023-02-02T10:19:15.898Z,6.61
2023-02-02T10:22:23.329Z,6.31
2023-02-02T10:25:28.262Z,6.44
2023-02-02T10:28:40.058Z,6.36
2023-02-02T10:31:44.817Z,6.36
2023-02-02T10:35:14.348Z,6.29
2023-02-02T10:38:45.506Z,6.38
2023-02-02T10:42:16.604Z,6.36
2023-02-02T10:45:20.666Z,6.36
2023-02-02T10:48:29.035Z,6.49
2023-02-02T10:51:30.686Z,6.52
2023-02-02T10:54:55.042Z,6.36
2023-02-02T10:58:07.149Z,6.31
2023-02-02T11:01:11.539Z,6.44
2023-02-02T11:04:31.835Z,6.38
2023-02-02T11:07:33.263Z,6.26
2023-02-02T11:10:34.726Z,6.31
2023-02-02T11:13:46.668Z,6.38
2023-02-02T11:17:01.557Z,6.80
2023-02-02T11:20:23.241Z,6.66
2023-02-02T11:23:28.195Z,6.78
2023-02-02T11:26:55.251Z,6.35
2023-02-02T11:30:09.659Z,6.54
2023-02-02T11:33:35.447Z,6.68
2023-02-02T11:36:36.918Z,6.68
2023-02-02T11:39:40.131Z,6.57
2023-02-02T11:42:46.886Z,6.64
2023-02-02T11:45:54.910Z,6.66
2023-02-02T11:49:03.629Z,6.90
2023-02-02T11:52:14.809Z,6.71
2023-02-02T11:55:22.191Z,6.86
2023-02-02T11:58:29.622Z,6.77
2023-02-02T12:01:34.447Z,6.93
2023-02-02T12:04:36.006Z,6.77
2023-02-02T12:07:37.707Z,6.86
2023-02-02T12:10:48.515Z,6.81
2023-02-02T12:14:02.350Z,7.02
2023-02-02T12:17:28.588Z,6.59
2023-02-02T12:21:00.200Z,6.84
2023-02-02T12:24:17.384Z,6.89
2023-02-02T12:27:35.369Z,6.84
2023-02-02T12:30:52.940Z,6.96
2023-02-02T12:34:10.664Z,6.92
2023-02-02T12:37:28.669Z,7.05
2023-02-02T12:41:09.907Z,7.20
2023-02-02T12:44:43.830Z,7.05
2023-02-02T12:48:06.283Z,6.73
2023-02-02T12:51:14.385Z,7.23
2023-02-02T12:54:46.410Z,7.08
2023-02-02T12:58:21.629Z,7.04
2023-02-02T13:01:23.094Z,7.17
2023-02-02T13:04:39.629Z,6.80
2023-02-02T13:07:52.511Z,6.65
2023-02-02T13:11:03.338Z,7.10
2023-02-02T13:14:12.183Z,7.07
2023-02-02T13:17:20.825Z,7.19
2023-02-02T13:20:40.838Z,7.27
2023-02-02T13:23:50.395Z,7.15
2023-02-02T13:26:52.631Z,6.99
2023-02-02T13:30:05.583Z,6.87
2023-02-02T13:33:16.604Z,6.80
2023-02-02T13:36:29.803Z,6.88
2023-02-02T13:39:40.941Z,7.04
2023-02-02T13:42:47.948Z,7.02
2023-02-02T13:45:55.605Z,6.91
2023-02-02T13:49:04.566Z,7.17
2023-02-02T13:52:40.068Z,7.10
2023-02-02T13:55:56.734Z,6.87
2023-02-02T13:59:35.750Z,6.72
2023-02-02T14:02:47.897Z,7.07
2023-02-02T14:06:27.005Z,6.98
2023-02-02T14:09:32.151Z,7.14
2023-02-02T14:12:35.699Z,7.21
2023-02-02T14:15:44.354Z,7.11
2023-02-02T14:18:48.881Z,7.26
2023-02-02T14:22:02.709Z,7.23
2023-02-02T14:25:33.357Z,7.14
2023-02-02T14:28:43.865Z,7.23
2023-02-02T14:31:54.828Z,7.13
2023-02-02T14:34:58.346Z,7.12
2023-02-02T14:38:13.549Z,7.20
2023-02-02T14:41:55.137Z,7.25
2023-02-02T14:45:25.845Z,7.23
2023-02-02T14:48:27.551Z,7.30
2023-02-02T14:51:32.783Z,7.33
2023-02-02T14:54:41.412Z,7.28
2023-02-02T14:57:43.130Z,7.38
2023-02-02T15:01:02.400Z,7.31
2023-02-02T15:04:22.460Z,7.22
2023-02-02T15:07:23.893Z,7.25
2023-02-02T15:10:59.690Z,7.27
2023-02-02T15:14:10.126Z,7.23
2023-02-02T15:17:27.724Z,7.13
2023-02-02T15:20:49.937Z,7.06
2023-02-02T15:23:51.657Z,7.20
2023-02-02T15:26:54.693Z,7.05
2023-02-02T15:30:03.099Z,7.06
2023-02-02T15:33:15.373Z,7.10
2023-02-02T15:36:25.445Z,7.00
2023-02-02T15:39:44.703Z,7.05
2023-02-02T15:42:54.218Z,6.84
2023-02-02T15:46:02.614Z,7.11
2023-02-02T15:49:35.904Z,7.02
2023-02-02T15:52:50.172Z,7.11
2023-02-02T15:55:52.861Z,7.18
2023-02-02T15:58:59.588Z,7.22
2023-02-02T16:02:11.751Z,7.18
2023-02-02T16:05:31.343Z,7.19
2023-02-02T16:08:36.383Z,7.28
2023-02-02T16:11:42.347Z,7.19
2023-02-02T16:14:46.828Z,7.24
2023-02-02T16:18:05.456Z,7.29
2023-02-02T16:21:24.730Z,7.19
2023-02-02T16:24:33.279Z,7.23
2023-02-02T16:27:35.398Z,7.03
2023-02-02T16:30:38.962Z,7.26
2023-02-02T16:33:45.211Z,7.14
2023-02-02T16:37:04.964Z,7.21
2023-02-02T16:40:36.067Z,7.21
2023-02-02T16:43:40.151Z,7.12
2023-02-02T16:46:45.716Z,7.19
2023-02-02T16:49:47.241Z,7.20
2023-02-02T16:53:02.305Z,7.27
2023-02-02T16:56:07.640Z,7.30
2023-02-02T16:59:21.910Z,7.31
2023-02-02T17:02:35.680Z,7.41
2023-02-02T17:05:54.009Z,7.37
2023-02-02T17:08:55.453Z,7.28
2023-02-02T17:12:03.267Z,7.39
2023-02-02T17:15:16.911Z,7.37
2023-02-02T17:18:18.439Z,7.26
2023-02-02T17:21:22.733Z,7.28
2023-02-02T17:24:24.317Z,7.41
2023-02-02T17:27:33.851Z,7.23
2023-02-02T17:30:36.083Z,6.89
2023-02-02T17:33:38.161Z,7.10
2023-02-02T17:36:39.796Z,6.75
2023-02-02T17:39:41.274Z,6.77
2023-02-02T17:42:44.993Z,6.82
2023-02-02T17:45:46.521Z,6.87
2023-02-02T17:48:48.096Z,7.00
2023-02-02T17:51:50.638Z,7.09
2023-02-02T17:54:52.089Z,6.88
2023-02-02T17:57:54.187Z,7.04
2023-02-02T18:00:58.941Z,7.16
2023-02-02T18:04:00.680Z,7.14
2023-02-02T18:07:03.664Z,7.20
2023-02-02T18:10:06.534Z,6.92
2023-02-02T18:13:09.718Z,6.86
2023-02-02T18:16:12.433Z,6.86
2023-02-02T18:19:13.862Z,6.85
2023-02-02T18:22:15.426Z,6.86
2023-02-02T18:25:17.412Z,6.96
2023-02-02T18:28:19.181Z,6.77
2023-02-02T18:31:23.662Z,7.02
2023-02-02T18:34:28.806Z,6.95
2023-02-02T18:37:30.271Z,7.07
2023-02-02T18:40:31.724Z,6.96
2023-02-02T18:43:33.526Z,6.95
2023-02-02T18:46:35.032Z,6.95
2023-02-02T18:49:36.456Z,6.93
2023-02-02T18:52:37.900Z,6.92
2023-02-02T18:55:39.447Z,6.88
2023-02-02T18:58:41.249Z,6.87
2023-02-02T19:01:42.833Z,6.74
2023-02-02T19:05:03.540Z,6.71
2023-02-02T19:08:05.709Z,6.71
2023-02-02T19:11:14.554Z,6.59
2023-02-02T19:14:24.670Z,6.65
2023-02-02T19:17:27.909Z,6.76
2023-02-02T19:20:30.563Z,6.68
2023-02-02T19:23:34.707Z,6.67
2023-02-02T19:26:40.408Z,6.58
2023-02-02T19:29:41.960Z,6.43
2023-02-02T19:32:43.720Z,6.42
2023-02-02T19:35:49.250Z,6.00
2023-02-02T19:38:55.690Z,5.96
2023-02-02T19:42:00.531Z,5.90
2023-02-02T19:45:17.310Z,5.93
2023-02-02T19:48:24.752Z,5.72
2023-02-02T19:51:44.617Z,5.92
2023-02-02T19:54:48.812Z,5.66
2023-02-02T19:57:52.076Z,5.72
2023-02-02T20:00:56.260Z,5.93
2023-02-02T20:03:58.461Z,5.74
2023-02-02T20:07:00.021Z,5.86
2023-02-02T20:10:18.660Z,5.70
2023-02-02T20:13:58.514Z,5.92
2023-02-02T20:17:04.808Z,5.77
2023-02-02T20:20:27.447Z,5.93
2023-02-02T20:23:36.416Z,6.03
2023-02-02T20:26:38.292Z,5.87
2023-02-02T20:29:42.422Z,6.08
2023-02-02T20:32:43.919Z,6.10
2023-02-02T20:35:45.309Z,6.15
2023-02-02T20:38:46.774Z,6.03
2023-02-02T20:41:48.625Z,5.84
2023-02-02T20:44:50.920Z,6.03
2023-02-02T20:47:52.500Z,6.09
2023-02-02T20:50:54.107Z,6.38
2023-02-02T20:53:56.481Z,6.17
2023-02-02T20:56:58.170Z,6.12
2023-02-02T20:59:59.872Z,6.10
2023-02-02T21:03:01.412Z,6.18
2023-02-02T21:06:02.880Z,6.07
2023-02-02T21:09:06.236Z,6.00
2023-02-02T21:12:07.877Z,6.22
2023-02-02T21:15:09.978Z,6.22
2023-02-02T21:18:11.452Z,6.11
2023-02-02T21:21:14.292Z,6.33
2023-02-02T21:24:15.760Z,6.32
2023-02-02T21:27:17.229Z,6.15
2023-02-02T21:30:18.848Z,6.26
2023-02-02T21:33:20.254Z,6.24
2023-02-02T21:36:36.352Z,6.31
2023-02-02T21:39:37.796Z,6.34
2023-02-02T21:42:39.288Z,6.19
2023-02-02T21:45:42.929Z,6.35
2023-02-02T21:48:46.143Z,6.16
2023-02-02T21:51:47.638Z,6.09
2023-02-02T21:54:49.321Z,5.89
2023-02-02T21:57:50.758Z,5.99
2023-02-02T22:00:54.281Z,6.27
2023-02-02T22:03:55.734Z,6.22
2023-02-02T22:07:10.207Z,6.35
2023-02-02T22:10:20.699Z,6.27
2023-02-02T22:13:24.917Z,6.13
2023-02-02T22:16:26.478Z,6.33
2023-02-02T22:19:38.325Z,6.08
2023-02-02T22:22:44.206Z,6.31
2023-02-02T22:25:48.166Z,6.27
2023-02-02T22:28:49.566Z,6.26
2023-02-02T22:31:50.988Z,6.12
2023-02-02T22:34:52.542Z,6.00
2023-02-02T22:37:54.071Z,6.15
2023-02-02T22:40:55.577Z,6.09
2023-02-02T22:43:57.046Z,6.18
2023-02-02T22:46:58.493Z,6.12
2023-02-02T22:49:59.921Z,6.08
2023-02-02T22:53:02.594Z,6.21
2023-02-02T22:56:04.307Z,6.26
2023-02-02T22:59:05.774Z,5.88
2023-02-02T23:02:07.214Z,6.25
2023-02-02T23:05:11.640Z,5.85
2023-02-02T23:08:13.219Z,6.11
2023-02-02T23:11:14.747Z,6.06
2023-02-02T23:14:16.137Z,5.84
2023-02-02T23:17:17.602Z,5.87
2023-02-02T23:20:19.379Z,6.04
2023-02-02T23:23:22.285Z,6.07
2023-02-02T23:26:24.109Z,6.13
2023-02-02T23:29:25.511Z,6.04
2023-02-02T23:32:26.952Z,6.12
2023-02-02T23:35:28.338Z,5.92
2023-02-02T23:38:29.730Z,6.05
2023-02-02T23:41:31.197Z,6.16
2023-02-02T23:44:32.606Z,6.12
2023-02-02T23:47:34.894Z,6.18
2023-02-02T23:50:38.431Z,6.22
2023-02-02T23:53:41.603Z,5.98
2023-02-02T23:56:43.227Z,5.84
2023-02-02T23:59:44.620Z,5.72
